createdAt,value
2018-09-01T00:02:13.001Z,5.05
2018-09-01T00:04:41.520Z,4.87
2018-09-01T00:07:10.065Z,6.15
2018-09-01T00:09:38.611Z,4.12
2018-09-01T00:12:07.987Z,5.37
2018-09-01T00:14:36.568Z,5.90
2018-09-01T00:17:05.465Z,7.03
2018-09-01T00:19:34.060Z,7.05
2018-09-01T00:22:02.600Z,5.60
2018-09-01T00:24:31.086Z,4.08
2018-09-01T00:26:59.606Z,4.15
2018-09-01T00:29:28.126Z,7.72
2018-09-01T00:31:56.602Z,7.78
2018-09-01T00:34:25.140Z,6.87
2018-09-01T00:36:53.727Z,8.08
2018-09-01T00:39:22.276Z,8.13
2018-09-01T00:41:50.792Z,12.40
2018-09-01T00:44:19.349Z,7.80
2018-09-01T00:46:47.905Z,9.53
2018-09-01T00:49:16.416Z,9.05
2018-09-01T00:51:45.042Z,7.90
2018-09-01T00:54:13.530Z,7.45
2018-09-01T00:56:42.063Z,6.90
2018-09-01T00:59:10.623Z,7.37
2018-09-01T01:01:39.124Z,8.50
2018-09-01T01:04:07.700Z,9.50
2018-09-01T01:06:36.218Z,6.83
2018-09-01T01:09:05.620Z,7.15
2018-09-01T01:11:34.122Z,7.75
2018-09-01T01:14:02.751Z,7.17
2018-09-01T01:16:31.272Z,6.78
2018-09-01T01:18:59.807Z,9.58
2018-09-01T01:21:28.417Z,6.92
2018-09-01T01:23:56.914Z,5.55
2018-09-01T01:26:25.440Z,6.85
2018-09-01T01:28:53.971Z,7.58
2018-09-01T01:31:22.472Z,7.08
2018-09-01T01:33:51.061Z,6.17
2018-09-01T01:36:19.566Z,4.53
2018-09-01T01:38:48.392Z,5.85
2018-09-01T01:41:16.905Z,6.92
2018-09-01T01:43:45.493Z,9.38
2018-09-01T01:46:14.038Z,5.97
2018-09-01T01:48:42.567Z,7.75
2018-09-01T01:51:11.558Z,7.95
2018-09-01T01:53:40.056Z,7.95
2018-09-01T01:56:08.612Z,8.63
2018-09-01T01:58:37.097Z,8.03
2018-09-01T02:01:05.618Z,5.40
2018-09-01T02:03:34.155Z,7.67
2018-09-01T02:06:02.652Z,9.90
2018-09-01T02:08:31.143Z,8.60
2018-09-01T02:10:59.699Z,10.65
2018-09-01T02:13:28.198Z,9.13
2018-09-01T02:15:56.702Z,7.30
2018-09-01T02:18:25.181Z,10.30
2018-09-01T02:20:53.774Z,7.50
2018-09-01T02:23:22.315Z,7.80
2018-09-01T02:25:50.811Z,8.65
2018-09-01T02:28:19.311Z,8.48
2018-09-01T02:30:47.819Z,8.70
2018-09-01T02:33:16.361Z,12.45
2018-09-01T02:35:44.849Z,6.60
2018-09-01T02:38:13.297Z,11.60
2018-09-01T02:40:41.769Z,5.65
2018-09-01T02:43:10.262Z,9.98
2018-09-01T02:45:38.783Z,7.80
2018-09-01T02:48:07.296Z,8.55
2018-09-01T02:50:35.920Z,7.70
2018-09-01T02:53:04.539Z,9.35
2018-09-01T02:55:33.057Z,10.85
2018-09-01T02:58:01.676Z,11.03
2018-09-01T03:00:37.210Z,8.58
2018-09-01T03:03:05.783Z,9.05
2018-09-01T03:05:34.290Z,11.20
2018-09-01T03:08:03.350Z,13.30
2018-09-01T03:10:31.851Z,9.28
2018-09-01T03:13:00.399Z,8.73
2018-09-01T03:15:28.909Z,9.68
2018-09-01T03:17:57.445Z,11.88
2018-09-01T03:20:25.913Z,10.25
2018-09-01T03:22:54.443Z,13.62
2018-09-01T03:25:22.970Z,8.80
2018-09-01T03:27:51.484Z,11.57
2018-09-01T03:30:19.989Z,7.97
2018-09-01T03:32:48.501Z,10.35
2018-09-01T03:35:17.015Z,11.63
2018-09-01T03:37:45.503Z,14.25
2018-09-01T03:40:13.962Z,14.33
2018-09-01T03:42:42.465Z,10.53
2018-09-01T03:45:10.958Z,12.40
2018-09-01T03:47:39.548Z,11.88
2018-09-01T03:50:08.012Z,12.35
2018-09-01T03:52:36.523Z,11.38
2018-09-01T03:55:05.040Z,11.57
2018-09-01T03:57:33.555Z,15.13
2018-09-01T04:00:02.043Z,11.70
2018-09-01T04:02:37.550Z,11.50
2018-09-01T04:05:06.786Z,13.75
2018-09-01T04:07:35.250Z,16.25
2018-09-01T04:10:03.839Z,12.93
2018-09-01T04:12:32.319Z,12.20
2018-09-01T04:15:00.882Z,17.37
2018-09-01T04:17:29.404Z,19.00
2018-09-01T04:19:57.882Z,15.00
2018-09-01T04:22:26.363Z,17.25
2018-09-01T04:24:54.865Z,16.62
2018-09-01T04:27:23.485Z,12.37
2018-09-01T04:29:51.980Z,11.48
2018-09-01T04:32:20.547Z,12.25
2018-09-01T04:34:49.103Z,13.22
2018-09-01T04:37:17.710Z,14.83
2018-09-01T04:39:46.326Z,13.65
2018-09-01T04:42:14.820Z,12.33
2018-09-01T04:44:43.288Z,14.05
2018-09-01T04:47:11.922Z,11.93
2018-09-01T04:49:40.447Z,12.63
2018-09-01T04:52:08.989Z,13.20
2018-09-01T04:54:37.536Z,14.73
2018-09-01T04:57:06.068Z,12.05
2018-09-01T04:59:34.549Z,11.48
2018-09-01T05:02:03.111Z,12.03
2018-09-01T05:04:31.623Z,12.73
2018-09-01T05:07:00.155Z,11.22
2018-09-01T05:09:28.682Z,13.28
2018-09-01T05:11:57.138Z,12.58
2018-09-01T05:14:25.657Z,12.43
2018-09-01T05:16:54.224Z,10.68
2018-09-01T05:19:22.809Z,13.48
2018-09-01T05:21:51.381Z,14.47
2018-09-01T05:24:19.907Z,14.58
2018-09-01T05:26:48.474Z,12.85
2018-09-01T05:29:17.019Z,11.83
2018-09-01T05:31:45.519Z,12.33
2018-09-01T05:34:14.299Z,15.53
2018-09-01T05:36:42.930Z,13.85
2018-09-01T05:39:11.410Z,13.95
2018-09-01T05:41:39.948Z,13.48
2018-09-01T05:44:08.508Z,15.98
2018-09-01T05:46:37.084Z,14.60
2018-09-01T05:49:05.717Z,11.75
2018-09-01T05:51:34.199Z,13.03
2018-09-01T05:54:02.740Z,13.22
2018-09-01T05:56:31.253Z,11.28
2018-09-01T05:58:59.807Z,10.25
2018-09-01T06:01:28.408Z,14.68
2018-09-01T06:03:56.993Z,10.80
2018-09-01T06:06:25.547Z,12.43
2018-09-01T06:08:54.044Z,12.47
2018-09-01T06:11:22.616Z,10.18
2018-09-01T06:13:51.270Z,11.45
2018-09-01T06:16:19.792Z,11.93
2018-09-01T06:18:48.357Z,12.40
2018-09-01T06:21:16.983Z,9.98
2018-09-01T06:23:45.791Z,7.78
2018-09-01T06:26:14.354Z,7.62
2018-09-01T06:28:47.634Z,9.58
2018-09-01T06:31:17.335Z,8.43
2018-09-01T06:33:45.908Z,12.55
2018-09-01T06:36:14.499Z,9.53
2018-09-01T06:38:43.110Z,8.50
2018-09-01T06:41:11.637Z,9.70
2018-09-01T06:43:40.165Z,12.50
2018-09-01T06:46:08.688Z,8.35
2018-09-01T06:48:37.222Z,9.85
2018-09-01T06:51:05.778Z,9.58
2018-09-01T06:53:34.295Z,6.97
2018-09-01T06:56:02.922Z,6.85
2018-09-01T06:58:31.417Z,7.03
2018-09-01T07:00:59.903Z,6.92
2018-09-01T07:03:28.408Z,8.58
2018-09-01T07:05:56.907Z,9.48
2018-09-01T07:08:25.453Z,7.28
2018-09-01T07:10:53.978Z,8.20
2018-09-01T07:13:22.530Z,6.20
2018-09-01T07:15:51.060Z,6.47
2018-09-01T07:18:19.592Z,6.45
2018-09-01T07:20:48.099Z,7.78
2018-09-01T07:23:16.645Z,5.15
2018-09-01T07:25:45.139Z,7.95
2018-09-01T07:28:13.626Z,7.53
2018-09-01T07:30:42.305Z,5.78
2018-09-01T07:33:10.683Z,8.70
2018-09-01T07:35:39.210Z,6.65
2018-09-01T07:38:07.985Z,5.78
2018-09-01T07:40:36.479Z,6.62
2018-09-01T07:43:05.009Z,8.10
2018-09-01T07:45:33.489Z,6.17
2018-09-01T07:48:02.007Z,4.37
2018-09-01T07:50:30.487Z,5.58
2018-09-01T07:52:58.986Z,7.25
2018-09-01T07:55:27.484Z,8.38
2018-09-01T07:57:55.966Z,6.17
2018-09-01T08:00:24.492Z,6.20
2018-09-01T08:02:53.055Z,7.25
2018-09-01T08:05:21.594Z,7.47
2018-09-01T08:07:50.114Z,5.83
2018-09-01T08:10:18.671Z,7.05
2018-09-01T08:12:47.196Z,6.40
2018-09-01T08:15:15.729Z,6.45
2018-09-01T08:17:44.811Z,6.33
2018-09-01T08:20:13.296Z,4.80
2018-09-01T08:22:41.779Z,6.05
2018-09-01T08:25:10.382Z,6.35
2018-09-01T08:27:38.913Z,6.25
2018-09-01T08:30:07.484Z,6.58
2018-09-01T08:32:36.019Z,4.83
2018-09-01T08:35:04.610Z,4.20
2018-09-01T08:37:33.175Z,4.33
2018-09-01T08:40:01.681Z,5.20
2018-09-01T08:42:30.160Z,4.75
2018-09-01T08:44:58.668Z,4.75
2018-09-01T08:47:27.182Z,3.58
2018-09-01T08:49:55.665Z,3.37
2018-09-01T08:52:24.200Z,4.42
2018-09-01T08:54:52.806Z,4.58
2018-09-01T08:57:21.286Z,2.77
2018-09-01T08:59:49.764Z,1.20
2018-09-01T09:02:18.325Z,3.62
2018-09-01T09:04:46.832Z,4.53
2018-09-01T09:07:15.376Z,3.62
2018-09-01T09:09:43.934Z,2.92
2018-09-01T09:12:12.481Z,1.90
2018-09-01T09:14:41.003Z,3.95
2018-09-01T09:17:09.588Z,4.90
2018-09-01T09:19:38.130Z,3.77
2018-09-01T09:22:06.680Z,4.22
2018-09-01T09:24:35.245Z,4.78
2018-09-01T09:27:03.772Z,3.85
2018-09-01T09:29:32.315Z,2.52
2018-09-01T09:32:00.989Z,4.83
2018-09-01T09:34:29.593Z,3.17
2018-09-01T09:36:58.094Z,2.85
2018-09-01T09:39:26.603Z,4.08
2018-09-01T09:41:55.461Z,5.17
2018-09-01T09:44:24.069Z,4.85
2018-09-01T09:46:52.592Z,3.58
2018-09-01T09:49:21.197Z,4.92
2018-09-01T09:51:49.739Z,4.00
2018-09-01T09:54:18.352Z,6.75
2018-09-01T09:56:46.915Z,3.62
2018-09-01T09:59:15.457Z,4.22
2018-09-01T10:01:43.980Z,4.58
2018-09-01T10:04:12.811Z,3.90
2018-09-01T10:06:41.331Z,4.12
2018-09-01T10:09:13.518Z,3.70
2018-09-01T10:11:43.131Z,5.08
2018-09-01T10:14:12.162Z,3.92
2018-09-01T10:16:41.463Z,4.47
2018-09-01T10:19:10.236Z,3.77
2018-09-01T10:21:38.928Z,2.25
2018-09-01T10:24:07.809Z,3.47
2018-09-01T10:26:36.335Z,2.30
2018-09-01T10:29:04.872Z,2.65
2018-09-01T10:31:33.423Z,4.28
2018-09-01T10:34:01.976Z,4.65
2018-09-01T10:36:30.614Z,4.03
2018-09-01T10:38:59.436Z,4.80
2018-09-01T10:41:28.070Z,5.20
2018-09-01T10:43:56.675Z,3.20
2018-09-01T10:46:25.246Z,4.37
2018-09-01T10:48:53.841Z,3.02
2018-09-01T10:51:22.448Z,4.08
2018-09-01T10:53:50.951Z,2.77
2018-09-01T10:56:19.474Z,3.75
2018-09-01T10:58:48.139Z,3.90
2018-09-01T11:01:16.605Z,2.80
2018-09-01T11:03:45.178Z,3.50
2018-09-01T11:06:13.714Z,4.00
2018-09-01T11:08:42.233Z,4.65
2018-09-01T11:11:10.771Z,4.03
2018-09-01T11:13:39.322Z,4.20
2018-09-01T11:16:07.918Z,2.33
2018-09-01T11:18:36.816Z,6.20
2018-09-01T11:21:05.424Z,3.25
2018-09-01T11:23:34.076Z,2.47
2018-09-01T11:26:02.703Z,3.85
2018-09-01T11:28:31.260Z,2.72
2018-09-01T11:30:59.824Z,3.17
2018-09-01T11:33:28.333Z,3.55
2018-09-01T11:35:56.875Z,4.35
2018-09-01T11:38:25.465Z,2.98
2018-09-01T11:40:54.001Z,2.47
2018-09-01T11:43:22.574Z,5.40
2018-09-01T11:45:51.078Z,2.47
2018-09-01T11:48:19.633Z,3.10
2018-09-01T11:50:48.127Z,4.80
2018-09-01T11:53:16.779Z,3.05
2018-09-01T11:55:45.243Z,4.25
2018-09-01T11:58:13.757Z,3.80
2018-09-01T12:00:42.285Z,3.27
2018-09-01T12:03:10.789Z,2.67
2018-09-01T12:05:39.326Z,4.25
2018-09-01T12:08:07.864Z,2.87
2018-09-01T12:10:36.449Z,2.30
2018-09-01T12:13:05.030Z,4.42
2018-09-01T12:15:33.580Z,3.85
2018-09-01T12:18:02.104Z,3.77
2018-09-01T12:20:30.646Z,2.85
2018-09-01T12:22:59.163Z,4.25
2018-09-01T12:25:27.691Z,4.42
2018-09-01T12:27:56.258Z,5.35
2018-09-01T12:30:24.818Z,3.67
2018-09-01T12:32:53.582Z,5.53
2018-09-01T12:35:22.184Z,2.62
2018-09-01T12:37:50.694Z,4.05
2018-09-01T12:40:19.210Z,4.33
2018-09-01T12:42:47.745Z,4.62
2018-09-01T12:45:16.325Z,4.87
2018-09-01T12:47:44.872Z,6.37
2018-09-01T12:50:13.386Z,4.03
2018-09-01T12:52:41.993Z,2.77
2018-09-01T12:55:10.555Z,3.27
2018-09-01T12:57:39.157Z,4.50
2018-09-01T13:00:07.860Z,5.03
2018-09-01T13:02:36.447Z,3.77
2018-09-01T13:05:05.502Z,4.12
2018-09-01T13:07:34.083Z,3.47
2018-09-01T13:10:02.728Z,6.80
2018-09-01T13:12:31.298Z,4.75
2018-09-01T13:14:59.897Z,3.35
2018-09-01T13:17:28.472Z,4.75
2018-09-01T13:19:57.119Z,3.45
2018-09-01T13:22:25.950Z,5.35
2018-09-01T13:24:54.548Z,4.20
2018-09-01T13:27:23.066Z,3.55
2018-09-01T13:29:51.609Z,3.67
2018-09-01T13:32:20.130Z,4.33
2018-09-01T13:34:48.728Z,2.80
2018-09-01T13:37:17.265Z,4.87
2018-09-01T13:39:45.836Z,4.28
2018-09-01T13:42:14.993Z,4.78
2018-09-01T13:44:43.607Z,3.00
2018-09-01T13:47:12.123Z,2.05
2018-09-01T13:49:40.660Z,3.75
2018-09-01T13:52:09.265Z,3.67
2018-09-01T13:54:37.808Z,3.72
2018-09-01T13:57:06.358Z,4.33
2018-09-01T13:59:34.879Z,4.20
2018-09-01T14:02:03.494Z,4.10
2018-09-01T14:04:32.027Z,4.42
2018-09-01T14:07:00.612Z,5.40
2018-09-01T14:09:29.193Z,5.17
2018-09-01T14:11:57.728Z,3.52
2018-09-01T14:14:26.409Z,4.37
2018-09-01T14:16:55.520Z,5.50
2018-09-01T14:19:24.151Z,3.90
2018-09-01T14:21:52.787Z,3.75
2018-09-01T14:24:21.454Z,3.37
2018-09-01T14:26:50.028Z,4.33
2018-09-01T14:29:18.590Z,2.75
2018-09-01T14:31:47.163Z,3.37
2018-09-01T14:34:15.857Z,4.42
2018-09-01T14:36:44.439Z,3.42
2018-09-01T14:39:13.043Z,8.75
2018-09-01T14:41:41.631Z,3.22
2018-09-01T14:44:10.300Z,4.05
2018-09-01T14:46:38.940Z,4.12
2018-09-01T14:49:07.462Z,4.45
2018-09-01T14:51:36.026Z,5.60
2018-09-01T14:54:04.613Z,6.90
2018-09-01T14:56:33.173Z,6.25
2018-09-01T14:59:01.716Z,6.17
2018-09-01T15:01:30.348Z,8.65
2018-09-01T15:03:58.864Z,10.53
2018-09-01T15:06:27.594Z,11.50
2018-09-01T15:08:56.170Z,11.85
2018-09-01T15:11:24.706Z,12.03
2018-09-01T15:13:53.280Z,5.12
2018-09-01T15:16:21.883Z,4.37
2018-09-01T15:18:50.426Z,3.55
2018-09-01T15:21:18.999Z,4.90
2018-09-01T15:23:47.570Z,4.30
2018-09-01T15:26:16.104Z,5.20
2018-09-01T15:28:44.632Z,6.20
2018-09-01T15:31:13.133Z,4.95
2018-09-01T15:33:41.651Z,4.05
2018-09-01T15:36:10.193Z,4.20
2018-09-01T15:38:38.771Z,3.33
2018-09-01T15:41:07.632Z,3.92
2018-09-01T15:43:36.205Z,2.98
2018-09-01T15:46:04.760Z,7.80
2018-09-01T15:48:33.331Z,4.08
2018-09-01T15:51:01.957Z,4.67
2018-09-01T15:53:30.574Z,4.50
2018-09-01T15:55:59.147Z,3.75
2018-09-01T15:58:27.657Z,5.60
2018-09-01T16:00:57.026Z,3.37
2018-09-01T16:03:25.651Z,3.22
2018-09-01T16:05:54.235Z,5.03
2018-09-01T16:08:22.867Z,3.70
2018-09-01T16:10:51.858Z,4.00
2018-09-01T16:13:20.413Z,5.42
2018-09-01T16:15:49.030Z,4.92
2018-09-01T16:18:17.525Z,5.12
2018-09-01T16:20:46.077Z,5.55
2018-09-01T16:23:14.623Z,4.67
2018-09-01T16:25:43.182Z,5.42
2018-09-01T16:28:11.852Z,4.00
2018-09-01T16:30:40.390Z,3.22
2018-09-01T16:33:08.942Z,3.67
2018-09-01T16:35:37.483Z,4.72
2018-09-01T16:38:06.004Z,5.05
2018-09-01T16:40:34.547Z,3.17
2018-09-01T16:43:03.052Z,4.72
2018-09-01T16:45:31.646Z,4.00
2018-09-01T16:48:00.248Z,3.27
2018-09-01T16:50:28.811Z,4.92
2018-09-01T16:52:57.382Z,3.37
2018-09-01T16:55:25.984Z,3.52
2018-09-01T16:57:54.517Z,3.77
2018-09-01T17:00:23.016Z,5.72
2018-09-01T17:02:51.565Z,5.15
2018-09-01T17:05:20.167Z,4.95
2018-09-01T17:07:48.725Z,5.47
2018-09-01T17:10:17.230Z,3.30
2018-09-01T17:12:45.768Z,4.40
2018-09-01T17:15:14.438Z,4.67
2018-09-01T17:17:42.930Z,4.85
2018-09-01T17:20:11.461Z,4.25
2018-09-01T17:22:39.977Z,4.40
2018-09-01T17:25:08.533Z,5.33
2018-09-01T17:27:37.070Z,5.03
2018-09-01T17:30:06.524Z,4.05
2018-09-01T17:32:35.087Z,4.17
2018-09-01T17:35:03.671Z,5.03
2018-09-01T17:37:32.317Z,5.03
2018-09-01T17:40:00.890Z,3.98
2018-09-01T17:42:29.433Z,4.50
2018-09-01T17:44:58.056Z,5.40
2018-09-01T17:47:26.679Z,4.10
2018-09-01T17:49:55.234Z,3.55
2018-09-01T17:52:23.789Z,4.62
2018-09-01T17:54:52.368Z,5.45
2018-09-01T17:57:21.010Z,5.37
2018-09-01T17:59:49.558Z,3.15
2018-09-01T18:02:18.289Z,4.53
2018-09-01T18:04:46.874Z,5.90
2018-09-01T18:07:15.477Z,5.42
2018-09-01T18:09:44.125Z,4.15
2018-09-01T18:12:12.760Z,2.90
2018-09-01T18:14:41.411Z,5.87
2018-09-01T18:17:10.036Z,5.28
2018-09-01T18:19:38.629Z,3.33
2018-09-01T18:22:07.269Z,4.03
2018-09-01T18:24:35.990Z,4.33
2018-09-01T18:27:04.553Z,4.12
2018-09-01T18:29:33.113Z,3.77
2018-09-01T18:32:01.680Z,4.60
2018-09-01T18:34:29.853Z,4.55
2018-09-01T18:36:58.410Z,5.03
2018-09-01T18:39:27.011Z,5.30
2018-09-01T18:41:55.646Z,5.10
2018-09-01T18:44:24.261Z,5.22
2018-09-01T18:46:52.477Z,4.80
2018-09-01T18:49:21.043Z,3.98
2018-09-01T18:51:49.632Z,4.62
2018-09-01T18:54:18.199Z,3.65
2018-09-01T18:56:46.730Z,5.28
2018-09-01T18:59:15.358Z,6.60
2018-09-01T19:01:43.950Z,6.53
2018-09-01T19:04:12.604Z,6.17
2018-09-01T19:06:41.141Z,8.85
2018-09-01T19:09:09.643Z,6.83
2018-09-01T19:11:38.287Z,6.45
2018-09-01T19:14:06.878Z,5.03
2018-09-01T19:16:35.347Z,6.78
2018-09-01T19:19:03.859Z,5.87
2018-09-01T19:21:32.363Z,4.87
2018-09-01T19:24:00.967Z,7.25
2018-09-01T19:26:29.518Z,5.45
2018-09-01T19:28:58.091Z,6.30
2018-09-01T19:31:26.655Z,5.83
2018-09-01T19:33:55.227Z,6.70
2018-09-01T19:36:23.759Z,7.80
2018-09-01T19:38:52.348Z,7.40
2018-09-01T19:41:20.927Z,6.90
2018-09-01T19:43:49.493Z,6.95
2018-09-01T19:46:18.157Z,6.42
2018-09-01T19:48:46.749Z,7.20
2018-09-01T19:51:15.401Z,8.18
2018-09-01T19:53:43.969Z,8.13
2018-09-01T19:56:12.715Z,6.00
2018-09-01T19:58:41.316Z,7.12
2018-09-01T20:01:09.937Z,5.85
2018-09-01T20:03:38.514Z,8.35
2018-09-01T20:06:07.119Z,7.92
2018-09-01T20:08:35.713Z,9.33
2018-09-01T20:11:04.224Z,5.37
2018-09-01T20:13:32.918Z,5.30
2018-09-01T20:16:01.808Z,7.75
2018-09-01T20:18:30.359Z,6.90
2018-09-01T20:20:59.025Z,7.42
2018-09-01T20:23:27.644Z,10.80
2018-09-01T20:25:56.287Z,7.20
2018-09-01T20:28:24.938Z,7.97
2018-09-01T20:30:53.469Z,7.85
2018-09-01T20:33:22.064Z,5.40
2018-09-01T20:35:56.437Z,6.17
2018-09-01T20:38:25.856Z,5.42
2018-09-01T20:40:54.369Z,5.10
2018-09-01T20:43:23.211Z,6.40
2018-09-01T20:45:51.978Z,7.28
2018-09-01T20:48:20.563Z,6.67
2018-09-01T20:50:49.157Z,7.67
2018-09-01T20:53:17.682Z,6.60
2018-09-01T20:55:46.818Z,7.90
2018-09-01T20:58:15.838Z,10.80
2018-09-01T21:00:44.444Z,7.65
2018-09-01T21:03:12.988Z,6.75
2018-09-01T21:05:41.555Z,9.15
2018-09-01T21:08:10.261Z,10.43
2018-09-01T21:10:38.816Z,7.60
2018-09-01T21:13:07.338Z,8.25
2018-09-01T21:15:35.870Z,9.43
2018-09-01T21:18:04.472Z,6.25
2018-09-01T21:20:33.005Z,9.05
2018-09-01T21:23:01.563Z,8.45
2018-09-01T21:25:30.063Z,7.70
2018-09-01T21:27:58.584Z,9.40
2018-09-01T21:30:27.115Z,7.75
2018-09-01T21:32:55.695Z,8.93
2018-09-01T21:35:24.198Z,8.00
2018-09-01T21:37:52.705Z,6.58
2018-09-01T21:40:21.240Z,7.30
2018-09-01T21:42:49.735Z,8.65
2018-09-01T21:45:18.196Z,8.35
2018-09-01T21:47:46.748Z,7.83
2018-09-01T21:50:15.247Z,8.20
2018-09-01T21:52:43.806Z,10.20
2018-09-01T21:55:12.317Z,8.35
2018-09-01T21:57:40.848Z,7.03
2018-09-01T22:00:10.292Z,11.60
2018-09-01T22:02:38.890Z,5.92
2018-09-01T22:05:22.271Z,6.47
2018-09-01T22:07:50.793Z,6.50
2018-09-01T22:10:19.367Z,7.80
2018-09-01T22:12:47.923Z,6.00
2018-09-01T22:15:16.453Z,7.72
2018-09-01T22:17:45.022Z,7.40
2018-09-01T22:20:13.567Z,5.22
2018-09-01T22:22:42.114Z,7.12
2018-09-01T22:25:11.573Z,6.17
2018-09-01T22:27:40.199Z,8.65
2018-09-01T22:30:08.787Z,8.18
2018-09-01T22:32:37.860Z,6.95
2018-09-01T22:35:06.440Z,7.67
2018-09-01T22:37:35.025Z,7.70
2018-09-01T22:40:04.478Z,7.58
2018-09-01T22:42:33.018Z,5.30
2018-09-01T22:45:01.586Z,5.78
2018-09-01T22:47:31.702Z,8.55
2018-09-01T22:50:00.273Z,6.97
2018-09-01T22:52:28.861Z,6.92
2018-09-01T22:54:57.392Z,8.75
2018-09-01T22:57:25.991Z,7.78
2018-09-01T22:59:54.872Z,6.33
2018-09-01T23:02:23.428Z,7.00
2018-09-01T23:04:52.012Z,5.53
2018-09-01T23:07:20.522Z,7.87
2018-09-01T23:09:49.313Z,6.10
2018-09-01T23:12:17.843Z,7.78
2018-09-01T23:14:46.403Z,7.08
2018-09-01T23:17:15.071Z,7.58
2018-09-01T23:19:43.696Z,7.15
2018-09-01T23:22:12.349Z,8.33
2018-09-01T23:24:40.948Z,6.75
2018-09-01T23:27:09.556Z,7.25
2018-09-01T23:29:38.164Z,7.90
2018-09-01T23:32:06.828Z,5.75
2018-09-01T23:34:35.358Z,5.97
2018-09-01T23:37:03.929Z,6.08
2018-09-01T23:39:32.441Z,8.70
2018-09-01T23:42:00.960Z,8.05
2018-09-01T23:44:29.523Z,7.35
2018-09-01T23:46:58.034Z,8.23
2018-09-01T23:49:26.634Z,6.90
2018-09-01T23:51:55.271Z,10.30
2018-09-01T23:54:23.873Z,11.18
2018-09-01T23:56:52.427Z,8.00
2018-09-01T23:59:20.970Z,10.30
